Time;durP1;ratioP1;P1;durP2;ratioP2;P2;SDS_P1;SDS_P2;PMS_P1;PMS_P2;Temp;Humidity;BMP_temperature;BMP_pressure;BME280_temperature;BME280_humidity;BME280_pressure;Samples;Min_cycle;Max_cycle;Signal;HPM_P1;HPM_P2
2024/04/03 00:00:59;;;;;;;;;;;;;;;13.76;40.51;94568.94;4174564;28;19921;-67
2024/04/03 00:03:00;;;;;;;;;;;;;;;13.67;40.57;94570.03;4167812;28;20055;-67
2024/04/03 00:05:00;;;;;;;;;;;;;;;13.68;40.58;94572.50;4166313;28;19921;-67
2024/04/03 00:07:01;;;;;;;;;;;;;;;13.68;40.84;94574.28;4175448;28;19943;-65
2024/04/03 00:09:02;;;;;;;;;;;;;;;13.66;40.75;94576.31;4153019;28;19921;-65
2024/04/03 00:11:03;;;;;;;;;;;;;;;13.58;40.93;94564.03;4164895;28;19921;-67
2024/04/03 00:13:03;;;;;;;;;;;;;;;13.60;40.88;94569.13;4169374;28;19921;-67
2024/04/03 00:15:04;;;;;;;;;;;;;;;13.65;40.66;94577.28;4170375;28;20359;-67
2024/04/03 00:17:05;;;;;;;;;;;;;;;13.51;40.73;94584.19;4172668;28;19921;-67
2024/04/03 00:19:05;;;;;;;;;;;;;;;13.55;40.98;94582.00;4167546;28;20265;-66
2024/04/03 00:21:06;;;;;;;;;;;;;;;13.50;40.87;94578.09;4166844;28;20020;-67
2024/04/03 00:23:06;;;;;;;;;;;;;;;13.51;41.21;94582.38;4169162;28;20390;-66
2024/04/03 00:25:07;;;;;;;;;;;;;;;13.55;40.94;94584.63;4187562;28;20427;-66
2024/04/03 00:27:07;;;;;;;;;;;;;;;13.43;41.22;94595.59;4166034;28;19991;-67
2024/04/03 00:29:09;;;;;;;;;;;;;;;13.42;41.36;94588.72;4170272;28;19921;-66
2024/04/03 00:31:10;;;;;;;;;;;;;;;13.40;41.28;94595.13;4171055;28;19988;-68
2024/04/03 00:33:10;;;;;;;;;;;;;;;13.34;41.59;94590.63;4168830;28;19935;-67
2024/04/03 00:35:11;;;;;;;;;;;;;;;13.35;41.59;94585.16;4170070;28;19925;-65
2024/04/03 00:37:11;;;;;;;;;;;;;;;13.31;41.75;94584.72;4176007;28;19928;-66
2024/04/03 00:39:12;;;;;;;;;;;;;;;13.34;41.44;94578.25;4173440;28;19920;-67
2024/04/03 00:41:13;;;;;;;;;;;;;;;13.32;41.51;94578.44;4156029;28;19926;-67
2024/04/03 00:43:14;;;;;;;;;;;;;;;13.32;41.71;94575.00;4173867;28;19979;-65
2024/04/03 00:45:15;;;;;;;;;;;;;;;13.34;41.57;94567.75;4173418;28;19956;-66
2024/04/03 00:47:16;;;;;;;;;;;;;;;13.32;41.91;94581.06;4171794;28;19970;-65
2024/04/03 00:49:17;;;;;;;;;;;;;;;13.24;41.78;94585.56;4167134;28;19974;-66
2024/04/03 00:51:17;;;;;;;;;;;;;;;13.24;42.06;94572.41;4166785;28;19986;-65
2024/04/03 00:53:18;;;;;;;;;;;;;;;13.24;41.66;94585.56;4170314;28;19925;-67
2024/04/03 00:55:19;;;;;;;;;;;;;;;13.22;42.19;94587.53;4164941;28;19921;-66
2024/04/03 00:57:19;;;;;;;;;;;;;;;13.19;42.12;94587.91;4156296;28;20466;-66
2024/04/03 00:59:20;;;;;;;;;;;;;;;13.13;42.40;94583.34;4173885;28;19990;-66
2024/04/03 01:01:20;;;;;;;;;;;;;;;13.23;41.97;94578.69;4171808;28;19928;-66
2024/04/03 01:03:22;;;;;;;;;;;;;;;13.31;41.87;94581.25;4171546;28;20233;-67
2024/04/03 01:05:22;;;;;;;;;;;;;;;13.33;41.80;94576.63;4172834;28;19967;-66
2024/04/03 01:07:23;;;;;;;;;;;;;;;13.26;41.89;94573.84;4166103;28;20431;-66
2024/04/03 01:09:24;;;;;;;;;;;;;;;13.18;42.27;94571.28;4151892;28;20007;-65
2024/04/03 01:11:24;;;;;;;;;;;;;;;13.22;41.78;94582.28;4173961;28;20059;-65
2024/04/03 01:13:25;;;;;;;;;;;;;;;13.19;42.32;94585.28;4174230;28;19920;-68
2024/04/03 01:15:26;;;;;;;;;;;;;;;13.18;42.15;94588.91;4168648;28;19920;-65
2024/04/03 01:17:26;;;;;;;;;;;;;;;13.13;41.92;94581.53;4173318;28;20390;-66
2024/04/03 01:19:27;;;;;;;;;;;;;;;13.15;42.00;94582.19;4174189;28;19982;-66
2024/04/03 01:21:28;;;;;;;;;;;;;;;13.17;41.92;94584.66;4166219;28;19979;-65
2024/04/03 01:23:30;;;;;;;;;;;;;;;13.21;41.91;94575.41;4160705;28;20382;-66
2024/04/03 01:25:31;;;;;;;;;;;;;;;13.17;42.32;94574.13;4167995;28;19921;-66
2024/04/03 01:27:32;;;;;;;;;;;;;;;13.15;42.02;94576.91;4166046;28;19921;-65
2024/04/03 01:29:33;;;;;;;;;;;;;;;13.05;42.45;94579.78;4168550;28;19920;-65
2024/04/03 01:31:34;;;;;;;;;;;;;;;12.96;42.72;94580.03;4174641;28;19931;-64
2024/04/03 01:33:35;;;;;;;;;;;;;;;12.84;43.05;94580.47;4163945;28;19940;-66
2024/04/03 01:35:37;;;;;;;;;;;;;;;12.83;43.58;94581.44;4175646;28;19920;-66
2024/04/03 01:37:39;;;;;;;;;;;;;;;12.78;43.54;94581.16;4171209;28;19974;-65
2024/04/03 01:39:39;;;;;;;;;;;;;;;12.79;43.12;94567.00;4173976;28;20359;-67
2024/04/03 01:41:40;;;;;;;;;;;;;;;12.85;43.16;94574.19;4164587;28;20234;-66
2024/04/03 01:43:40;;;;;;;;;;;;;;;12.87;43.42;94571.41;4184228;28;19932;-66
2024/04/03 01:45:41;;;;;;;;;;;;;;;12.86;43.15;94567.13;4165006;28;20018;-68
2024/04/03 01:47:42;;;;;;;;;;;;;;;12.92;43.27;94574.31;4164639;28;19921;-66
2024/04/03 01:49:43;;;;;;;;;;;;;;;12.98;42.94;94576.22;4148149;28;19952;-67
2024/04/03 01:51:43;;;;;;;;;;;;;;;12.90;43.25;94568.41;4165359;28;19976;-66
2024/04/03 01:53:44;;;;;;;;;;;;;;;12.87;43.34;94576.66;4167593;28;19925;-65
2024/04/03 01:55:54;;;;;;;;;;;;;;;12.78;43.74;94580.34;4167592;28;20465;-65
2024/04/03 01:57:56;;;;;;;;;;;;;;;12.85;43.79;94581.28;4151815;28;19983;-66
2024/04/03 01:59:56;;;;;;;;;;;;;;;12.65;43.93;94580.94;4164529;28;20369;-66
2024/04/03 02:01:57;;;;;;;;;;;;;;;12.40;44.56;94588.13;4165669;28;19947;-65
2024/04/03 02:03:58;;;;;;;;;;;;;;;12.17;45.01;94583.63;4165849;28;19972;-65
2024/04/03 02:05:58;;;;;;;;;;;;;;;12.15;45.24;94584.81;4168685;28;19929;-66
2024/04/03 02:07:59;;;;;;;;;;;;;;;12.13;45.33;94577.13;4178849;28;20250;-67
2024/04/03 02:09:59;;;;;;;;;;;;;;;11.81;46.01;94588.53;4170288;28;20140;-66
2024/04/03 02:12:02;;;;;;;;;;;;;;;11.95;45.99;94594.91;4170140;28;19935;-64
2024/04/03 02:14:03;;;;;;;;;;;;;;;12.02;46.17;94585.34;4172311;28;19920;-65
2024/04/03 02:16:04;;;;;;;;;;;;;;;12.09;46.02;94589.75;4167823;28;20411;-65
2024/04/03 02:18:04;;;;;;;;;;;;;;;12.11;46.20;94594.00;4173978;28;19968;-65
2024/04/03 02:20:05;;;;;;;;;;;;;;;12.10;46.12;94585.31;4161913;28;19973;-66
2024/04/03 02:22:06;;;;;;;;;;;;;;;11.95;46.34;94584.41;4168685;28;19927;-65
2024/04/03 02:24:07;;;;;;;;;;;;;;;11.77;47.00;94585.41;4168554;28;19998;-66
2024/04/03 02:26:09;;;;;;;;;;;;;;;11.74;47.19;94577.88;4170157;28;19961;-67
2024/04/03 02:28:09;;;;;;;;;;;;;;;11.83;46.81;94573.41;4167557;28;19921;-68
2024/04/03 02:30:10;;;;;;;;;;;;;;;11.94;46.69;94572.25;4173648;28;20458;-66
2024/04/03 02:32:11;;;;;;;;;;;;;;;11.92;46.95;94569.00;4175534;28;19986;-68
2024/04/03 02:34:11;;;;;;;;;;;;;;;11.92;46.75;94564.56;4172795;28;19928;-67
2024/04/03 02:36:12;;;;;;;;;;;;;;;12.03;46.46;94571.25;4173495;28;20207;-65
2024/04/03 02:38:13;;;;;;;;;;;;;;;12.13;46.19;94566.63;4144494;28;19925;-67
2024/04/03 02:40:14;;;;;;;;;;;;;;;12.25;46.28;94570.47;4161861;28;19929;-67
2024/04/03 02:42:14;;;;;;;;;;;;;;;12.25;46.05;94574.91;4164845;28;19925;-66
2024/04/03 02:44:15;;;;;;;;;;;;;;;12.24;46.11;94578.53;4170705;28;20688;-67
2024/04/03 02:46:16;;;;;;;;;;;;;;;12.36;45.97;94576.34;4167547;28;20376;-65
2024/04/03 02:48:16;;;;;;;;;;;;;;;12.24;45.97;94589.84;4173231;28;19929;-66
2024/04/03 02:50:17;;;;;;;;;;;;;;;12.15;46.43;94593.50;4165366;28;19921;-65
2024/04/03 02:52:17;;;;;;;;;;;;;;;12.05;46.69;94598.16;4168721;28;19921;-67
2024/04/03 02:54:18;;;;;;;;;;;;;;;11.74;47.54;94604.09;4163592;28;20188;-69
2024/04/03 02:56:18;;;;;;;;;;;;;;;11.59;48.13;94598.72;4170780;28;19921;-65
2024/04/03 02:58:19;;;;;;;;;;;;;;;11.27;48.92;94600.44;4152673;28;20364;-65
2024/04/03 03:00:20;;;;;;;;;;;;;;;11.28;48.88;94603.88;4168164;28;19924;-66
2024/04/03 03:02:21;;;;;;;;;;;;;;;11.10;49.55;94611.94;4173918;28;19920;-65
2024/04/03 03:04:23;;;;;;;;;;;;;;;10.89;49.61;94616.84;4174382;28;20390;-67
2024/04/03 03:06:24;;;;;;;;;;;;;;;10.73;50.59;94615.00;4167988;28;19920;-66
2024/04/03 03:08:25;;;;;;;;;;;;;;;10.56;50.93;94615.00;4166932;28;20229;-66
2024/04/03 03:10:28;;;;;;;;;;;;;;;10.56;51.07;94620.25;4170159;28;19921;-67
2024/04/03 03:12:29;;;;;;;;;;;;;;;10.57;50.94;94627.09;4170546;28;19929;-66
2024/04/03 03:14:30;;;;;;;;;;;;;;;10.44;51.33;94626.75;4165366;28;20521;-67
2024/04/03 03:16:31;;;;;;;;;;;;;;;10.39;52.00;94632.47;4152189;28;19968;-68
2024/04/03 03:18:35;;;;;;;;;;;;;;;10.23;52.30;94635.81;4174540;28;20115;-66
2024/04/03 03:20:35;;;;;;;;;;;;;;;10.20;52.16;94645.78;4161703;28;19929;-68
2024/04/03 03:22:36;;;;;;;;;;;;;;;10.25;52.29;94643.50;4164362;28;20372;-66
2024/04/03 03:24:37;;;;;;;;;;;;;;;10.27;52.31;94640.75;4163134;28;20394;-67
2024/04/03 03:26:37;;;;;;;;;;;;;;;10.52;51.99;94644.25;4167346;28;20003;-67
2024/04/03 03:28:38;;;;;;;;;;;;;;;10.78;50.77;94638.94;4161529;28;19921;-67
2024/04/03 03:30:38;;;;;;;;;;;;;;;10.99;50.48;94636.66;4163067;28;19924;-66
2024/04/03 03:32:39;;;;;;;;;;;;;;;11.22;49.92;94628.94;4168618;28;19932;-66
2024/04/03 03:34:39;;;;;;;;;;;;;;;11.38;49.40;94630.75;4172634;28;20000;-66
2024/04/03 03:36:41;;;;;;;;;;;;;;;11.55;48.77;94634.19;4175787;28;19924;-65
2024/04/03 03:38:42;;;;;;;;;;;;;;;11.71;48.40;94633.31;4174901;28;19932;-67
2024/04/03 03:40:42;;;;;;;;;;;;;;;11.79;48.05;94638.56;4167585;28;19969;-67
2024/04/03 03:42:43;;;;;;;;;;;;;;;11.83;47.88;94639.88;4163622;28;19928;-66
2024/04/03 03:44:43;;;;;;;;;;;;;;;11.92;47.50;94647.75;4168579;28;19924;-65
2024/04/03 03:46:44;;;;;;;;;;;;;;;11.97;47.16;94643.63;4168324;28;19987;-66
2024/04/03 03:53:31;;;;;;;;;;;;;;;12.19;46.48;94649.94;4175511;28;19921;-65
2024/04/03 03:55:32;;;;;;;;;;;;;;;12.24;46.50;94647.63;4170472;28;20396;-67
2024/04/03 03:57:32;;;;;;;;;;;;;;;12.26;46.44;94650.06;4153615;28;19976;-68
2024/04/03 03:59:33;;;;;;;;;;;;;;;12.29;46.22;94655.00;4173376;28;19959;-67
2024/04/03 04:01:33;;;;;;;;;;;;;;;12.33;46.20;94652.88;4176026;28;20566;-68
2024/04/03 04:03:34;;;;;;;;;;;;;;;12.33;45.81;94666.81;4174672;28;19989;-68
2024/04/03 04:05:36;;;;;;;;;;;;;;;12.26;45.85;94661.41;4171310;28;19976;-67
2024/04/03 04:07:36;;;;;;;;;;;;;;;12.18;46.19;94663.25;4173543;28;19925;-67
2024/04/03 04:09:37;;;;;;;;;;;;;;;12.17;46.09;94659.78;4174153;28;20331;-67
2024/04/03 04:11:37;;;;;;;;;;;;;;;12.19;45.85;94665.69;4174190;28;19921;-69
2024/04/03 04:13:38;;;;;;;;;;;;;;;12.23;45.64;94667.00;4177776;28;19963;-68
2024/04/03 04:15:39;;;;;;;;;;;;;;;12.27;45.83;94670.13;4173467;28;19940;-68
2024/04/03 04:17:39;;;;;;;;;;;;;;;12.28;45.80;94669.09;4172271;28;19924;-71
2024/04/03 04:19:40;;;;;;;;;;;;;;;12.30;45.68;94669.75;4174480;28;19929;-68
2024/04/03 04:21:41;;;;;;;;;;;;;;;12.32;45.53;94665.16;4174394;28;20695;-70
2024/04/03 04:23:43;;;;;;;;;;;;;;;12.33;45.40;94666.81;4163531;28;19979;-69
2024/04/03 04:25:53;;;;;;;;;;;;;;;12.33;45.37;94660.75;4173637;28;19928;-66
2024/04/03 04:27:54;;;;;;;;;;;;;;;12.36;45.22;94663.81;4176569;28;20368;-68
2024/04/03 04:29:54;;;;;;;;;;;;;;;12.24;45.57;94660.78;4173974;28;19920;-68
2024/04/03 04:31:55;;;;;;;;;;;;;;;12.19;45.25;94673.56;4175917;28;19983;-68
2024/04/03 04:33:55;;;;;;;;;;;;;;;12.19;45.21;94673.56;4161049;28;19939;-67
2024/04/03 04:35:56;;;;;;;;;;;;;;;12.14;45.17;94675.91;4163208;28;20066;-66
2024/04/03 04:37:57;;;;;;;;;;;;;;;12.21;45.06;94674.22;4153910;28;19928;-66
2024/04/03 04:39:59;;;;;;;;;;;;;;;12.31;44.58;94676.66;4177008;28;19921;-69
2024/04/03 04:41:59;;;;;;;;;;;;;;;12.32;44.37;94677.47;4162415;28;19921;-68
2024/04/03 04:44:01;;;;;;;;;;;;;;;12.36;44.32;94678.78;4158782;28;20023;-67
2024/04/03 04:46:02;;;;;;;;;;;;;;;12.43;44.25;94683.19;4147607;28;19921;-68
2024/04/03 04:48:03;;;;;;;;;;;;;;;12.45;43.92;94690.88;4166072;28;20429;-70
2024/04/03 04:50:04;;;;;;;;;;;;;;;12.44;43.93;94679.56;4175444;28;19951;-69
2024/04/03 04:52:05;;;;;;;;;;;;;;;12.55;43.87;94688.88;4164408;28;19972;-69
2024/04/03 04:54:06;;;;;;;;;;;;;;;12.61;43.72;94690.81;4173030;28;19971;-69
2024/04/03 04:56:06;;;;;;;;;;;;;;;12.62;43.95;94697.69;4169206;28;19960;-68
2024/04/03 04:58:07;;;;;;;;;;;;;;;12.62;43.80;94700.34;4176603;28;19928;-68
2024/04/03 05:00:08;;;;;;;;;;;;;;;12.59;44.03;94695.44;4175221;28;19967;-66
2024/04/03 05:02:09;;;;;;;;;;;;;;;12.69;44.04;94695.19;4167334;28;19925;-68
2024/04/03 05:04:10;;;;;;;;;;;;;;;12.75;43.99;94691.88;4150851;28;19922;-68
2024/04/03 05:06:17;;;;;;;;;;;;;;;12.73;43.85;94695.69;4168683;28;20432;-68
2024/04/03 05:08:18;;;;;;;;;;;;;;;12.71;44.35;94695.84;4165445;28;19975;-69
2024/04/03 05:10:21;;;;;;;;;;;;;;;12.84;44.27;94688.25;4161810;28;20327;-67
2024/04/03 05:12:22;;;;;;;;;;;;;;;12.91;44.19;94696.25;4177643;28;19925;-68
2024/04/03 05:14:22;;;;;;;;;;;;;;;12.45;46.17;94694.34;4176194;28;19920;-71
2024/04/03 05:16:24;;;;;;;;;;;;;;;12.32;46.98;94691.44;4171053;28;20515;-69
2024/04/03 05:18:24;;;;;;;;;;;;;;;12.44;46.99;94691.88;4163218;28;19975;-69
2024/04/03 05:20:25;;;;;;;;;;;;;;;12.32;47.05;94686.16;4172042;28;19947;-69
2024/04/03 05:22:25;;;;;;;;;;;;;;;12.33;47.12;94698.34;4168774;28;20384;-70
2024/04/03 05:24:26;;;;;;;;;;;;;;;12.35;47.09;94693.72;4169645;28;19966;-68
2024/04/03 05:26:27;;;;;;;;;;;;;;;12.08;47.36;94694.94;4167015;28;19925;-69
2024/04/03 05:28:30;;;;;;;;;;;;;;;12.04;47.57;94701.53;4163192;28;19921;-66
2024/04/03 05:30:35;;;;;;;;;;;;;;;12.04;47.80;94697.09;4169211;28;19925;-67
2024/04/03 05:32:35;;;;;;;;;;;;;;;12.11;47.73;94702.50;4174234;28;20375;-69
2024/04/03 05:34:36;;;;;;;;;;;;;;;12.23;47.30;94708.22;4172601;28;19931;-68
2024/04/03 05:36:36;;;;;;;;;;;;;;;12.04;48.17;94704.97;4171179;28;20383;-69
2024/04/03 05:38:37;;;;;;;;;;;;;;;12.14;47.83;94703.97;4169470;28;19921;-69
2024/04/03 05:40:38;;;;;;;;;;;;;;;12.20;48.07;94704.13;4171555;28;19924;-68
2024/04/03 05:42:40;;;;;;;;;;;;;;;12.17;48.47;94701.81;4170243;28;20220;-68
2024/04/03 05:44:40;;;;;;;;;;;;;;;11.98;48.73;94703.03;4172920;28;19980;-69
2024/04/03 05:46:42;;;;;;;;;;;;;;;12.04;48.27;94699.72;4168950;28;20142;-71
2024/04/03 05:48:43;;;;;;;;;;;;;;;12.24;48.26;94699.34;4154500;28;20355;-68
2024/04/03 05:50:43;;;;;;;;;;;;;;;12.45;47.61;94698.75;4170823;28;19921;-69
2024/04/03 05:52:44;;;;;;;;;;;;;;;12.70;47.15;94697.66;4168813;28;19928;-67
2024/04/03 05:54:46;;;;;;;;;;;;;;;12.93;46.52;94704.78;4171851;28;20047;-70
2024/04/03 05:56:48;;;;;;;;;;;;;;;13.18;46.04;94704.63;4169993;28;19924;-67
2024/04/03 05:58:52;;;;;;;;;;;;;;;13.41;45.92;94707.31;4172215;28;19921;-68
2024/04/03 06:00:53;;;;;;;;;;;;;;;13.48;45.21;94706.41;4172485;28;19920;-67
2024/04/03 06:02:53;;;;;;;;;;;;;;;13.47;45.46;94712.66;4172834;28;19921;-66
2024/04/03 06:04:54;;;;;;;;;;;;;;;13.56;45.03;94702.09;4171037;28;20052;-71
2024/04/03 06:06:56;;;;;;;;;;;;;;;13.47;45.67;94707.41;4168415;28;19926;-69
2024/04/03 06:08:57;;;;;;;;;;;;;;;13.46;45.02;94710.22;4171235;28;19920;-68
2024/04/03 06:10:57;;;;;;;;;;;;;;;13.54;45.15;94707.53;4172815;28;20442;-69
2024/04/03 06:12:58;;;;;;;;;;;;;;;13.54;45.02;94714.59;4155707;28;20350;-67
2024/04/03 06:14:58;;;;;;;;;;;;;;;13.24;45.05;94715.28;4175368;28;19968;-67
2024/04/03 06:16:59;;;;;;;;;;;;;;;13.08;45.95;94716.19;4176521;28;19959;-69
2024/04/03 06:19:02;;;;;;;;;;;;;;;13.29;45.77;94715.63;4173086;28;19925;-70
2024/04/03 06:21:12;;;;;;;;;;;;;;;13.60;45.72;94717.34;4174265;28;20364;-69
2024/04/03 06:23:13;;;;;;;;;;;;;;;13.82;44.55;94713.03;4137867;28;19925;-68
2024/04/03 06:25:16;;;;;;;;;;;;;;;13.90;44.95;94717.41;4175892;28;19920;-67
2024/04/03 06:27:17;;;;;;;;;;;;;;;13.94;44.50;94713.44;4184746;28;20344;-66
2024/04/03 06:29:18;;;;;;;;;;;;;;;13.84;44.82;94723.41;4172191;28;19963;-68
2024/04/03 06:31:19;;;;;;;;;;;;;;;13.92;44.86;94718.06;4175038;28;19920;-69
2024/04/03 06:33:19;;;;;;;;;;;;;;;13.91;44.63;94722.50;4154621;28;19921;-67
2024/04/03 06:35:20;;;;;;;;;;;;;;;13.58;45.20;94721.16;4165554;28;20210;-69
2024/04/03 06:37:21;;;;;;;;;;;;;;;13.72;45.24;94718.56;4173621;28;20300;-68
2024/04/03 06:39:22;;;;;;;;;;;;;;;13.78;44.57;94724.91;4172365;28;19921;-69
2024/04/03 06:41:22;;;;;;;;;;;;;;;13.98;44.45;94730.53;4169304;28;20256;-67
2024/04/03 06:43:23;;;;;;;;;;;;;;;14.20;43.90;94731.44;4165766;28;19920;-67
2024/04/03 06:45:25;;;;;;;;;;;;;;;14.32;43.40;94737.88;4171783;28;19968;-67
2024/04/03 06:47:26;;;;;;;;;;;;;;;14.23;43.37;94725.00;4167371;28;19959;-68
2024/04/03 06:49:29;;;;;;;;;;;;;;;14.39;43.27;94724.00;4157644;28;19983;-69
2024/04/03 06:51:31;;;;;;;;;;;;;;;14.52;42.84;94721.56;4174408;28;20383;-69
2024/04/03 06:53:32;;;;;;;;;;;;;;;14.48;43.14;94731.63;4156122;28;19932;-68
2024/04/03 06:55:33;;;;;;;;;;;;;;;14.37;42.72;94721.56;4172274;28;19951;-67
2024/04/03 06:57:33;;;;;;;;;;;;;;;14.24;43.05;94729.25;4165301;28;19929;-68
2024/04/03 06:59:34;;;;;;;;;;;;;;;14.13;43.36;94730.50;4164274;28;19937;-68
2024/04/03 07:01:35;;;;;;;;;;;;;;;14.03;43.51;94740.50;4169881;28;19925;-68
2024/04/03 07:03:36;;;;;;;;;;;;;;;14.22;43.54;94732.09;4168968;28;20174;-68
2024/04/03 07:05:37;;;;;;;;;;;;;;;14.49;43.01;94737.72;4168038;28;20010;-68
2024/04/03 07:07:38;;;;;;;;;;;;;;;14.73;42.85;94739.28;4171676;28;19931;-68
2024/04/03 07:09:39;;;;;;;;;;;;;;;14.92;42.13;94743.16;4178126;28;19924;-67
2024/04/03 07:11:39;;;;;;;;;;;;;;;14.38;42.90;94735.53;4167058;28;20433;-68
2024/04/03 07:13:40;;;;;;;;;;;;;;;13.77;43.91;94733.00;4177334;28;20008;-69
2024/04/03 07:15:44;;;;;;;;;;;;;;;13.57;44.55;94740.56;4171328;28;19925;-68
2024/04/03 07:17:44;;;;;;;;;;;;;;;13.68;44.67;94737.50;4157190;28;19929;-67
2024/04/03 07:19:45;;;;;;;;;;;;;;;13.83;44.08;94737.53;4173332;28;19928;-69
2024/04/03 07:21:45;;;;;;;;;;;;;;;14.25;44.07;94730.91;4171851;28;19929;-67
2024/04/03 07:23:46;;;;;;;;;;;;;;;14.46;43.20;94733.63;4170865;28;19928;-68
2024/04/03 07:25:47;;;;;;;;;;;;;;;14.59;42.67;94735.66;4174318;28;19920;-68
2024/04/03 07:27:48;;;;;;;;;;;;;;;14.72;42.10;94735.84;4176738;28;20269;-69
2024/04/03 07:29:48;;;;;;;;;;;;;;;14.88;41.69;94747.16;4177160;28;19928;-67
2024/04/03 07:31:49;;;;;;;;;;;;;;;15.17;41.25;94745.50;4168870;28;20347;-69
2024/04/03 07:33:50;;;;;;;;;;;;;;;14.63;41.88;94739.56;4168816;28;20502;-68
2024/04/03 07:35:50;;;;;;;;;;;;;;;14.67;42.51;94737.38;4167141;28;20487;-69
2024/04/03 07:37:54;;;;;;;;;;;;;;;14.33;42.45;94736.91;4175856;28;19921;-67
2024/04/03 07:39:55;;;;;;;;;;;;;;;14.18;42.57;94728.19;4176094;28;19920;-67
2024/04/03 07:41:55;;;;;;;;;;;;;;;14.49;42.18;94729.81;4163309;28;20039;-68
2024/04/03 07:43:56;;;;;;;;;;;;;;;14.90;41.79;94729.34;4170698;28;19925;-68
2024/04/03 07:45:57;;;;;;;;;;;;;;;15.30;41.14;94727.97;4175088;28;20376;-66
2024/04/03 07:47:59;;;;;;;;;;;;;;;15.68;40.10;94732.19;4157326;28;19925;-67
2024/04/03 07:50:00;;;;;;;;;;;;;;;15.47;39.88;94736.47;4174002;28;20334;-69
2024/04/03 07:52:01;;;;;;;;;;;;;;;15.55;40.03;94727.59;4158307;28;20560;-67
2024/04/03 07:54:02;;;;;;;;;;;;;;;15.59;40.06;94726.22;4170188;28;19983;-70
2024/04/03 07:56:03;;;;;;;;;;;;;;;15.31;40.07;94731.41;4174674;28;19971;-66
2024/04/03 07:58:04;;;;;;;;;;;;;;;15.06;39.83;94737.06;4176139;28;20395;-68
2024/04/03 08:00:05;;;;;;;;;;;;;;;15.17;40.06;94730.47;4175630;28;19932;-70
2024/04/03 08:02:06;;;;;;;;;;;;;;;15.40;39.32;94729.47;4133736;28;19992;-65
2024/04/03 08:04:08;;;;;;;;;;;;;;;15.70;38.96;94724.88;4164476;28;20014;-69
2024/04/03 08:06:08;;;;;;;;;;;;;;;15.55;37.78;94728.44;4163404;28;19928;-68
2024/04/03 08:08:09;;;;;;;;;;;;;;;15.61;36.90;94723.38;4173927;28;20349;-68
2024/04/03 08:10:10;;;;;;;;;;;;;;;15.54;35.98;94733.88;4167243;28;19921;-68
2024/04/03 08:12:11;;;;;;;;;;;;;;;15.32;36.84;94736.53;4177745;28;19924;-68
2024/04/03 08:14:13;;;;;;;;;;;;;;;15.06;36.90;94730.97;4171220;28;19967;-69
2024/04/03 08:16:14;;;;;;;;;;;;;;;14.98;37.13;94731.88;4170406;28;20311;-70
2024/04/03 08:18:15;;;;;;;;;;;;;;;15.30;36.86;94735.88;4153008;28;19925;-69
2024/04/03 08:20:16;;;;;;;;;;;;;;;15.72;35.67;94725.53;4166532;28;19921;-68
2024/04/03 08:22:17;;;;;;;;;;;;;;;15.48;36.65;94727.53;4165298;28;19968;-67
2024/04/03 08:24:17;;;;;;;;;;;;;;;15.70;36.22;94719.59;4174512;28;20096;-70
2024/04/03 08:26:18;;;;;;;;;;;;;;;15.21;35.88;94731.75;4172075;28;20000;-69
2024/04/03 08:28:18;;;;;;;;;;;;;;;14.92;36.31;94727.34;4172739;28;20403;-69
2024/04/03 08:30:20;;;;;;;;;;;;;;;15.20;35.98;94724.00;4170685;28;19975;-70
2024/04/03 08:32:20;;;;;;;;;;;;;;;15.33;36.27;94724.94;4171308;28;19935;-69
2024/04/03 08:34:21;;;;;;;;;;;;;;;15.70;35.80;94735.44;4167779;28;20403;-69
2024/04/03 08:36:22;;;;;;;;;;;;;;;15.81;35.55;94732.34;4168564;28;19928;-68
2024/04/03 08:38:23;;;;;;;;;;;;;;;16.06;34.71;94732.72;4161861;28;19920;-68
2024/04/03 08:40:24;;;;;;;;;;;;;;;16.18;34.37;94725.09;4149453;28;19935;-69
2024/04/03 08:42:24;;;;;;;;;;;;;;;16.51;34.37;94733.22;4175218;28;19932;-69
2024/04/03 08:44:31;;;;;;;;;;;;;;;16.52;34.14;94728.75;4175621;28;20016;-68
2024/04/03 08:46:32;;;;;;;;;;;;;;;16.85;33.67;94728.97;4174790;28;19928;-68
2024/04/03 08:48:32;;;;;;;;;;;;;;;17.02;33.30;94723.34;4169975;28;19921;-68
2024/04/03 08:50:33;;;;;;;;;;;;;;;16.70;33.75;94720.31;4152406;28;20451;-69
2024/04/03 08:52:33;;;;;;;;;;;;;;;16.86;33.75;94717.34;4173181;28;19924;-69
2024/04/03 08:54:34;;;;;;;;;;;;;;;17.17;33.54;94706.28;4155646;28;19932;-69
2024/04/03 08:56:34;;;;;;;;;;;;;;;17.40;33.16;94707.75;4171139;28;19964;-69
2024/04/03 08:58:35;;;;;;;;;;;;;;;17.41;31.98;94714.69;4165846;28;19925;-67
2024/04/03 09:00:37;;;;;;;;;;;;;;;17.29;32.28;94708.34;4156573;28;19922;-69
2024/04/03 09:02:37;;;;;;;;;;;;;;;17.27;31.88;94705.06;4173389;28;19921;-68
2024/04/03 09:04:38;;;;;;;;;;;;;;;16.73;32.43;94707.50;4176507;28;20404;-70
2024/04/03 09:06:39;;;;;;;;;;;;;;;16.24;33.36;94711.13;4171299;28;19929;-69
2024/04/03 09:08:43;;;;;;;;;;;;;;;16.16;33.69;94705.97;4166138;28;20434;-69
2024/04/03 09:10:47;;;;;;;;;;;;;;;16.14;33.08;94711.44;4174234;28;20355;-69
2024/04/03 09:12:48;;;;;;;;;;;;;;;16.62;32.80;94717.84;4177179;28;19921;-70
2024/04/03 09:14:49;;;;;;;;;;;;;;;16.97;32.62;94714.16;4173673;28;19921;-70
2024/04/03 09:16:50;;;;;;;;;;;;;;;17.29;32.73;94714.44;4171543;28;19968;-68
2024/04/03 09:19:02;;;;;;;;;;;;;;;16.83;32.29;94723.06;4151384;28;19936;-69
2024/04/03 09:21:04;;;;;;;;;;;;;;;16.92;32.40;94729.00;4166652;28;19920;-69
2024/04/03 09:23:08;;;;;;;;;;;;;;;17.28;31.65;94723.41;4167927;28;19987;-68
2024/04/03 09:25:08;;;;;;;;;;;;;;;17.56;30.63;94720.63;4176101;28;20416;-68
2024/04/03 09:27:10;;;;;;;;;;;;;;;17.85;29.93;94717.81;4165875;28;19932;-69
2024/04/03 09:29:11;;;;;;;;;;;;;;;18.11;30.59;94717.81;4148481;28;19932;-68
2024/04/03 09:31:20;;;;;;;;;;;;;;;18.50;29.83;94710.81;4149021;28;19921;-68
2024/04/03 09:33:21;;;;;;;;;;;;;;;18.54;28.85;94700.59;4152825;28;19925;-70
2024/04/03 09:35:25;;;;;;;;;;;;;;;18.24;28.60;94709.03;4171784;28;20352;-68
2024/04/03 09:37:25;;;;;;;;;;;;;;;18.51;28.75;94703.69;4167330;28;19924;-68
2024/04/03 09:39:26;;;;;;;;;;;;;;;18.44;28.96;94701.03;4168728;28;20008;-69
2024/04/03 09:41:28;;;;;;;;;;;;;;;18.33;28.63;94712.28;4174190;28;19921;-67
2024/04/03 09:43:28;;;;;;;;;;;;;;;17.29;28.98;94698.56;4154951;28;20632;-69
2024/04/03 09:45:30;;;;;;;;;;;;;;;17.34;29.49;94700.63;4173889;28;19967;-70
2024/04/03 09:47:31;;;;;;;;;;;;;;;17.16;28.94;94711.75;4171134;28;19924;-68
2024/04/03 09:49:41;;;;;;;;;;;;;;;17.51;29.59;94701.03;4196631;27;20229;-59
2024/04/03 09:51:42;;;;;;;;;;;;;;;17.43;29.95;94710.00;4203585;28;19989;-61
2024/04/03 09:53:43;;;;;;;;;;;;;;;16.94;30.45;94705.78;4183724;28;19925;-61
2024/04/03 09:55:46;;;;;;;;;;;;;;;16.90;30.70;94701.91;4185070;28;20324;-60
2024/04/03 09:57:47;;;;;;;;;;;;;;;17.13;30.29;94702.41;4187681;28;20002;-61
2024/04/03 09:59:49;;;;;;;;;;;;;;;16.85;30.06;94686.63;4187664;28;20350;-60
2024/04/03 10:01:50;;;;;;;;;;;;;;;16.94;30.07;94692.56;4189572;28;19928;-58
2024/04/03 10:04:00;;;;;;;;;;;;;;;17.05;30.56;94681.41;4192706;28;20435;-59
2024/04/03 10:06:04;;;;;;;;;;;;;;;17.48;30.13;94680.25;4192009;28;19955;-60
2024/04/03 10:08:09;;;;;;;;;;;;;;;17.96;29.34;94675.63;4185078;28;19928;-59
2024/04/03 10:10:18;;;;;;;;;;;;;;;18.06;29.15;94679.69;4183539;28;20403;-61
2024/04/03 10:12:21;;;;;;;;;;;;;;;18.15;29.18;94675.78;4178168;28;19925;-60
2024/04/03 10:14:28;;;;;;;;;;;;;;;18.36;28.86;94667.59;4181805;28;19948;-63
2024/04/03 10:16:32;;;;;;;;;;;;;;;18.37;28.92;94669.25;4177181;28;20319;-61
2024/04/03 10:18:35;;;;;;;;;;;;;;;18.24;29.31;94663.97;4187750;28;19931;-63
2024/04/03 10:20:37;;;;;;;;;;;;;;;17.34;30.34;94679.44;4182474;28;19925;-62
2024/04/03 10:22:41;;;;;;;;;;;;;;;17.22;31.14;94687.16;4190462;28;20007;-61
2024/04/03 10:24:45;;;;;;;;;;;;;;;16.63;31.70;94672.69;4172209;28;19975;-63
2024/04/03 10:26:46;;;;;;;;;;;;;;;16.66;31.50;94672.28;4187901;28;19940;-59
2024/04/03 10:28:47;;;;;;;;;;;;;;;16.65;31.24;94670.66;4181689;28;20303;-61
2024/04/03 10:30:56;;;;;;;;;;;;;;;16.93;31.03;94673.22;4180691;28;19929;-60
2024/04/03 10:32:58;;;;;;;;;;;;;;;17.36;30.25;94667.63;4183330;28;19982;-61
2024/04/03 10:34:58;;;;;;;;;;;;;;;17.58;30.21;94676.19;4185116;28;19924;-62
2024/04/03 10:36:59;;;;;;;;;;;;;;;17.15;30.24;94665.94;4178480;28;19933;-62